createdAt,value
2019-03-20T00:01:13.856Z,7.17
2019-03-20T00:03:33.658Z,8.05
2019-03-20T00:05:53.384Z,7.70
2019-03-20T00:08:13.275Z,5.55
2019-03-20T00:10:33.287Z,5.92
2019-03-20T00:12:53.514Z,12.53
2019-03-20T00:15:14.481Z,7.45
2019-03-20T00:17:34.571Z,10.85
2019-03-20T00:19:54.402Z,9.00
2019-03-20T00:22:14.254Z,6.15
2019-03-20T00:24:34.393Z,5.87
2019-03-20T00:26:54.161Z,6.15
2019-03-20T00:29:14.108Z,6.45
2019-03-20T00:31:33.972Z,8.38
2019-03-20T00:33:53.861Z,6.83
2019-03-20T00:36:13.581Z,6.40
2019-03-20T00:38:33.457Z,6.47
2019-03-20T00:40:53.169Z,6.85
2019-03-20T00:43:12.994Z,7.35
2019-03-20T00:45:32.835Z,8.90
2019-03-20T00:47:52.512Z,5.83
2019-03-20T00:50:19.446Z,14.58
2019-03-20T00:52:39.466Z,5.08
2019-03-20T00:54:59.545Z,11.18
2019-03-20T00:57:19.556Z,8.33
2019-03-20T00:59:39.343Z,7.35
2019-03-20T01:01:59.031Z,7.50
2019-03-20T01:04:18.836Z,4.55
2019-03-20T01:06:38.591Z,7.42
2019-03-20T01:08:58.405Z,6.47
2019-03-20T01:11:18.254Z,7.67
2019-03-20T01:13:38.025Z,6.03
2019-03-20T01:15:58.035Z,5.22
2019-03-20T01:18:17.745Z,5.75
2019-03-20T01:20:37.686Z,8.10
2019-03-20T01:22:57.890Z,6.60
2019-03-20T01:25:18.300Z,7.03
2019-03-20T01:27:38.059Z,11.45
2019-03-20T01:29:58.082Z,10.13
2019-03-20T01:32:17.958Z,4.10
2019-03-20T01:34:37.942Z,6.25
2019-03-20T01:36:57.850Z,19.90
2019-03-20T01:39:17.619Z,6.72
2019-03-20T01:41:38.449Z,9.15
2019-03-20T01:43:58.664Z,7.55
2019-03-20T01:46:18.456Z,4.97
2019-03-20T01:48:38.225Z,7.40
2019-03-20T01:51:16.936Z,8.28
2019-03-20T01:53:37.600Z,10.70
2019-03-20T01:55:57.783Z,5.70
2019-03-20T01:58:17.772Z,6.90
2019-03-20T02:00:37.827Z,9.80
2019-03-20T02:02:57.641Z,6.22
2019-03-20T02:05:17.576Z,6.47
2019-03-20T02:07:37.507Z,10.63
2019-03-20T02:09:57.263Z,15.43
2019-03-20T02:12:17.129Z,7.10
2019-03-20T02:14:37.233Z,4.30
2019-03-20T02:16:57.025Z,4.17
2019-03-20T02:19:16.849Z,5.53
2019-03-20T02:21:36.504Z,5.22
2019-03-20T02:23:56.338Z,5.05
2019-03-20T02:26:16.251Z,6.00
2019-03-20T02:28:36.016Z,10.60
2019-03-20T02:30:56.043Z,4.50
2019-03-20T02:33:15.654Z,7.62
2019-03-20T02:35:50.317Z,10.03
2019-03-20T02:37:57.397Z,4.65
2019-03-20T02:40:17.159Z,4.65
2019-03-20T02:42:37.032Z,9.35
2019-03-20T02:44:56.807Z,6.97
2019-03-20T02:47:16.870Z,5.33
2019-03-20T02:49:36.929Z,4.72
2019-03-20T02:51:56.862Z,6.92
2019-03-20T02:54:16.866Z,6.78
2019-03-20T02:56:36.759Z,8.23
2019-03-20T02:58:57.111Z,3.70
2019-03-20T03:01:16.953Z,7.95
2019-03-20T03:03:37.281Z,8.15
2019-03-20T03:06:06.820Z,10.32
2019-03-20T03:08:18.803Z,12.13
2019-03-20T03:10:38.555Z,5.47
2019-03-20T03:12:58.326Z,10.58
2019-03-20T03:15:17.975Z,6.05
2019-03-20T03:17:37.810Z,8.03
2019-03-20T03:19:57.938Z,5.70
2019-03-20T03:22:17.609Z,6.78
2019-03-20T03:24:37.320Z,12.07
2019-03-20T03:26:57.106Z,8.55
2019-03-20T03:29:16.863Z,6.78
2019-03-20T03:31:36.624Z,4.60
2019-03-20T03:33:56.419Z,6.08
2019-03-20T03:36:21.477Z,6.50
2019-03-20T03:38:38.356Z,3.92
2019-03-20T03:40:58.158Z,12.03
2019-03-20T03:43:17.968Z,8.20
2019-03-20T03:45:37.713Z,7.67
2019-03-20T03:47:57.624Z,6.22
2019-03-20T03:50:17.570Z,3.65
2019-03-20T03:52:37.549Z,5.35
2019-03-20T03:54:57.513Z,5.55
2019-03-20T03:57:17.431Z,7.58
2019-03-20T03:59:37.097Z,8.03
2019-03-20T04:01:56.869Z,10.43
2019-03-20T04:04:16.573Z,5.85
2019-03-20T04:06:36.613Z,5.80
2019-03-20T04:08:56.293Z,6.90
2019-03-20T04:11:16.087Z,13.85
2019-03-20T04:13:35.863Z,4.92
2019-03-20T04:15:56.170Z,5.08
2019-03-20T04:18:16.041Z,9.68
2019-03-20T04:20:35.731Z,9.03
2019-03-20T04:22:56.509Z,4.33
2019-03-20T04:25:16.400Z,5.67
2019-03-20T04:27:36.137Z,10.48
2019-03-20T04:29:56.033Z,5.00
2019-03-20T04:32:15.874Z,6.42
2019-03-20T04:34:35.886Z,5.47
2019-03-20T04:36:55.710Z,2.90
2019-03-20T04:39:15.542Z,6.45
2019-03-20T04:41:35.594Z,4.17
2019-03-20T04:44:15.499Z,5.05
2019-03-20T04:46:35.371Z,9.75
2019-03-20T04:48:55.095Z,4.60
2019-03-20T04:51:15.083Z,5.83
2019-03-20T04:53:35.108Z,13.03
2019-03-20T04:55:55.040Z,6.92
2019-03-20T04:58:14.983Z,3.25
2019-03-20T05:00:34.860Z,4.70
2019-03-20T05:02:54.632Z,11.28
2019-03-20T05:05:14.319Z,5.55
2019-03-20T05:07:34.056Z,7.87
2019-03-20T05:09:53.754Z,3.92
2019-03-20T05:12:13.491Z,7.42
2019-03-20T05:14:33.248Z,8.85
2019-03-20T05:16:52.943Z,9.68
2019-03-20T05:19:12.640Z,7.37
2019-03-20T05:21:32.416Z,12.30
2019-03-20T05:23:52.224Z,13.10
2019-03-20T05:26:11.936Z,11.18
2019-03-20T05:28:31.727Z,7.53
2019-03-20T05:30:51.973Z,11.50
2019-03-20T05:33:11.795Z,21.68
2019-03-20T05:35:31.684Z,13.85
2019-03-20T05:37:51.653Z,22.62
2019-03-20T05:40:15.820Z,11.28
2019-03-20T05:42:35.726Z,9.25
2019-03-20T05:44:56.169Z,6.22
2019-03-20T05:47:16.355Z,7.22
2019-03-20T05:49:36.374Z,5.72
2019-03-20T05:51:56.172Z,7.28
2019-03-20T05:54:19.358Z,9.98
2019-03-20T05:56:39.211Z,5.60
2019-03-20T05:58:59.122Z,5.45
2019-03-20T06:01:18.951Z,4.72
2019-03-20T06:03:39.093Z,6.65
2019-03-20T06:05:59.008Z,5.72
2019-03-20T06:08:18.977Z,6.60
2019-03-20T06:10:38.989Z,8.05
2019-03-20T06:12:58.965Z,4.60
2019-03-20T06:15:18.960Z,7.05
2019-03-20T06:17:39.022Z,9.08
2019-03-20T06:19:58.797Z,6.67
2019-03-20T06:22:18.521Z,5.03
2019-03-20T06:24:38.301Z,4.55
2019-03-20T06:26:58.141Z,9.65
2019-03-20T06:29:20.095Z,3.60
2019-03-20T06:31:39.710Z,3.37
2019-03-20T06:33:59.386Z,6.55
2019-03-20T06:36:19.163Z,5.42
2019-03-20T06:38:38.929Z,12.03
2019-03-20T06:40:58.688Z,13.08
2019-03-20T06:43:18.664Z,10.85
2019-03-20T06:45:38.776Z,7.78
2019-03-20T06:47:58.546Z,7.75
2019-03-20T06:50:20.766Z,8.88
2019-03-20T06:52:41.412Z,13.20
2019-03-20T06:55:01.656Z,12.25
2019-03-20T06:57:21.840Z,10.65
2019-03-20T07:00:07.427Z,10.40
2019-03-20T07:02:27.673Z,12.43
2019-03-20T07:05:45.729Z,6.92
2019-03-20T07:08:06.624Z,8.68
2019-03-20T07:11:02.617Z,8.88
2019-03-20T07:13:22.879Z,7.55
2019-03-20T07:15:42.747Z,12.73
2019-03-20T07:18:02.620Z,10.18
2019-03-20T07:20:22.364Z,5.95
2019-03-20T07:22:42.048Z,7.53
2019-03-20T07:25:02.091Z,16.48
2019-03-20T07:27:21.901Z,10.30
2019-03-20T07:29:41.599Z,5.75
2019-03-20T07:32:01.426Z,9.83
2019-03-20T07:34:21.169Z,7.33
2019-03-20T07:36:40.997Z,7.33
2019-03-20T07:39:00.865Z,11.97
2019-03-20T07:41:20.610Z,7.40
2019-03-20T07:43:40.492Z,13.50
2019-03-20T07:46:00.368Z,10.73
2019-03-20T07:48:22.482Z,7.90
2019-03-20T07:50:42.024Z,7.73
2019-03-20T07:53:01.875Z,8.83
2019-03-20T07:55:21.676Z,9.63
2019-03-20T07:57:41.606Z,9.47
2019-03-20T08:00:01.543Z,7.50
2019-03-20T08:02:21.480Z,10.53
2019-03-20T08:04:41.328Z,6.83
2019-03-20T08:07:01.260Z,6.00
2019-03-20T08:09:21.204Z,12.80
2019-03-20T08:11:41.509Z,8.70
2019-03-20T08:14:01.131Z,6.60
2019-03-20T08:16:20.954Z,7.50
2019-03-20T08:18:40.609Z,9.33
2019-03-20T08:21:00.304Z,5.60
2019-03-20T08:23:20.044Z,7.27
2019-03-20T08:25:39.745Z,6.63
2019-03-20T08:27:59.579Z,9.40
2019-03-20T08:30:19.280Z,9.87
2019-03-20T08:32:39.023Z,9.73
2019-03-20T08:34:58.737Z,9.70
2019-03-20T08:37:18.475Z,9.00
2019-03-20T08:39:38.305Z,10.13
2019-03-20T08:41:58.132Z,8.33
2019-03-20T08:44:37.808Z,9.03
2019-03-20T08:46:58.173Z,11.57
2019-03-20T08:49:17.901Z,7.83
2019-03-20T08:51:37.825Z,5.90
2019-03-20T08:53:57.580Z,10.43
2019-03-20T08:56:17.549Z,9.53
2019-03-20T08:58:37.765Z,6.00
2019-03-20T09:00:57.711Z,5.30
2019-03-20T09:03:17.613Z,7.40
2019-03-20T09:05:37.559Z,5.40
2019-03-20T09:07:57.435Z,7.23
2019-03-20T09:10:20.482Z,7.63
2019-03-20T09:12:40.795Z,6.00
2019-03-20T09:15:00.716Z,5.20
2019-03-20T09:17:20.816Z,6.90
2019-03-20T09:19:41.203Z,4.53
2019-03-20T09:22:00.980Z,4.87
2019-03-20T09:24:20.835Z,10.10
2019-03-20T09:26:40.678Z,8.27
2019-03-20T09:29:00.427Z,6.37
2019-03-20T09:31:20.222Z,6.80
2019-03-20T09:33:39.916Z,5.00
2019-03-20T09:35:59.651Z,8.00
2019-03-20T09:38:19.486Z,7.70
2019-03-20T09:40:39.335Z,6.30
2019-03-20T09:42:59.186Z,6.27
2019-03-20T09:45:20.317Z,7.90
2019-03-20T09:47:40.184Z,11.37
2019-03-20T09:49:59.971Z,10.63
2019-03-20T09:52:19.748Z,6.13
2019-03-20T09:54:39.572Z,6.53
2019-03-20T09:56:59.259Z,7.37
2019-03-20T09:59:19.166Z,8.33
2019-03-20T10:01:39.175Z,8.80
2019-03-20T10:03:59.110Z,5.53
2019-03-20T10:06:19.077Z,5.47
2019-03-20T10:08:39.074Z,14.57
2019-03-20T10:10:58.889Z,7.87
2019-03-20T10:13:18.775Z,7.80
2019-03-20T10:15:38.588Z,6.77
2019-03-20T10:17:58.216Z,6.83
2019-03-20T10:20:19.536Z,8.97
2019-03-20T10:22:39.507Z,6.63
2019-03-20T10:24:59.295Z,9.93
2019-03-20T10:27:18.972Z,7.67
2019-03-20T10:29:39.298Z,7.87
2019-03-20T10:31:59.037Z,9.27
2019-03-20T10:34:18.854Z,10.80
2019-03-20T10:36:39.166Z,9.90
2019-03-20T10:39:06.411Z,8.90
2019-03-20T10:41:20.513Z,10.10
2019-03-20T10:43:40.348Z,13.37
2019-03-20T10:46:00.073Z,11.07
2019-03-20T10:48:19.745Z,11.30
2019-03-20T10:50:39.582Z,13.07
2019-03-20T10:52:59.399Z,8.27
2019-03-20T10:55:19.273Z,8.90
2019-03-20T10:57:39.596Z,10.80
2019-03-20T10:59:59.394Z,14.73
2019-03-20T11:02:19.477Z,10.90
2019-03-20T11:04:39.316Z,11.47
2019-03-20T11:06:59.427Z,14.17
2019-03-20T11:09:19.840Z,10.63
2019-03-20T11:11:40.251Z,12.10
2019-03-20T11:14:00.153Z,10.13
2019-03-20T11:16:20.072Z,10.07
2019-03-20T11:18:39.761Z,13.90
2019-03-20T11:20:59.582Z,12.97
2019-03-20T11:23:19.226Z,9.73
2019-03-20T11:25:39.006Z,10.10
2019-03-20T11:27:58.791Z,11.33
2019-03-20T11:30:32.302Z,9.93
2019-03-20T11:32:52.202Z,10.07
2019-03-20T11:35:12.047Z,11.30
2019-03-20T11:37:31.922Z,13.80
2019-03-20T11:39:52.788Z,9.03
2019-03-20T11:42:12.782Z,9.53
2019-03-20T11:44:32.628Z,10.10
2019-03-20T11:46:52.457Z,10.10
2019-03-20T11:49:12.431Z,10.80
2019-03-20T11:51:32.275Z,13.20
2019-03-20T11:53:52.214Z,8.93
2019-03-20T11:56:12.323Z,10.00
2019-03-20T11:58:32.304Z,9.57
2019-03-20T12:00:52.936Z,10.80
2019-03-20T12:03:12.952Z,11.33
2019-03-20T12:05:32.709Z,11.23
2019-03-20T12:07:52.564Z,11.87
2019-03-20T12:10:21.165Z,20.00
2019-03-20T12:12:40.705Z,10.77
2019-03-20T12:15:00.401Z,12.97
2019-03-20T12:17:20.426Z,15.77
2019-03-20T12:19:44.809Z,10.80
2019-03-20T12:22:02.437Z,10.47
2019-03-20T12:24:22.328Z,11.97
2019-03-20T12:26:42.226Z,11.77
2019-03-20T12:29:02.164Z,10.90
2019-03-20T12:31:22.562Z,10.13
2019-03-20T12:33:42.504Z,12.53
2019-03-20T12:36:02.904Z,12.17
2019-03-20T12:38:23.044Z,12.60
2019-03-20T12:40:42.970Z,15.10
2019-03-20T12:43:04.125Z,13.00
2019-03-20T12:45:28.234Z,11.73
2019-03-20T12:47:47.953Z,12.10
2019-03-20T12:50:11.246Z,13.47
2019-03-20T12:52:30.906Z,12.77
2019-03-20T12:54:50.701Z,11.57
2019-03-20T12:57:10.520Z,14.30
2019-03-20T12:59:30.358Z,12.17
2019-03-20T13:01:50.326Z,12.20
2019-03-20T13:04:10.199Z,15.83
2019-03-20T13:06:30.180Z,13.50
2019-03-20T13:08:50.184Z,11.73
2019-03-20T13:11:10.004Z,11.13
2019-03-20T13:13:29.778Z,11.60
2019-03-20T13:15:49.553Z,10.30
2019-03-20T13:18:09.268Z,16.10
2019-03-20T13:20:29.146Z,14.03
2019-03-20T13:23:00.185Z,12.50
2019-03-20T13:25:19.928Z,12.13
2019-03-20T13:27:39.849Z,15.73
2019-03-20T13:29:59.545Z,13.17
2019-03-20T13:32:19.507Z,13.50
2019-03-20T13:34:39.424Z,13.43
2019-03-20T13:36:59.459Z,14.00
2019-03-20T13:39:19.453Z,15.50
2019-03-20T13:41:39.335Z,11.67
2019-03-20T13:43:59.193Z,11.77
2019-03-20T13:46:19.069Z,13.73
2019-03-20T13:48:38.845Z,14.93
2019-03-20T13:50:58.566Z,15.97
2019-03-20T13:53:18.315Z,16.43
2019-03-20T13:55:38.048Z,15.37
2019-03-20T13:57:57.891Z,16.10
2019-03-20T14:00:25.336Z,13.90
2019-03-20T14:02:45.632Z,14.20
2019-03-20T14:05:05.581Z,16.33
2019-03-20T14:07:25.532Z,14.47
2019-03-20T14:09:45.432Z,16.90
2019-03-20T14:12:05.267Z,19.83
2019-03-20T14:14:25.558Z,14.63
2019-03-20T14:16:45.334Z,16.57
2019-03-20T14:19:05.120Z,14.90
2019-03-20T14:21:24.957Z,16.97
2019-03-20T14:23:44.763Z,15.10
2019-03-20T14:26:04.461Z,16.50
2019-03-20T14:28:24.251Z,18.20
2019-03-20T14:30:44.111Z,15.80
2019-03-20T14:33:03.937Z,19.40
2019-03-20T14:35:23.929Z,18.87
2019-03-20T14:37:44.051Z,18.00
2019-03-20T14:40:35.407Z,19.90
2019-03-20T14:42:50.125Z,17.93
2019-03-20T14:45:13.420Z,19.33
2019-03-20T14:47:41.890Z,16.60
2019-03-20T14:49:55.342Z,18.97
2019-03-20T14:52:15.221Z,18.60
2019-03-20T14:54:35.089Z,19.10
2019-03-20T14:56:55.127Z,19.33
2019-03-20T14:59:15.053Z,18.20
2019-03-20T15:01:34.966Z,19.57
2019-03-20T15:03:54.812Z,18.10
2019-03-20T15:06:14.417Z,20.20
2019-03-20T15:08:34.121Z,17.93
2019-03-20T15:10:53.846Z,21.40
2019-03-20T15:13:13.621Z,17.47
2019-03-20T15:15:44.734Z,18.27
2019-03-20T15:18:06.146Z,17.70
2019-03-20T15:20:25.855Z,19.40
2019-03-20T15:22:45.729Z,17.83
2019-03-20T15:25:09.516Z,21.10
2019-03-20T15:27:29.380Z,17.17
2019-03-20T15:29:49.286Z,17.20
2019-03-20T15:32:09.392Z,16.80
2019-03-20T15:34:29.152Z,19.63
2019-03-20T15:36:49.001Z,16.60
2019-03-20T15:39:08.875Z,16.57
2019-03-20T15:41:28.770Z,20.33
2019-03-20T15:43:48.749Z,20.40
2019-03-20T15:46:08.718Z,18.20
2019-03-20T15:48:28.569Z,17.30
2019-03-20T15:50:48.510Z,18.07
2019-03-20T15:53:08.476Z,18.60
2019-03-20T15:55:32.136Z,18.60
2019-03-20T15:57:52.482Z,20.23
2019-03-20T16:00:21.029Z,19.43
2019-03-20T16:02:41.053Z,22.03
2019-03-20T16:05:00.846Z,18.73
2019-03-20T16:07:20.612Z,20.80
2019-03-20T16:09:40.484Z,18.70
2019-03-20T16:12:00.306Z,19.00
2019-03-20T16:14:20.023Z,21.50
2019-03-20T16:16:40.062Z,19.37
2019-03-20T16:18:59.955Z,21.57
2019-03-20T16:21:19.742Z,18.83
2019-03-20T16:23:39.651Z,22.10
2019-03-20T16:25:59.590Z,21.03
2019-03-20T16:28:19.588Z,22.30
2019-03-20T16:30:39.452Z,20.70
2019-03-20T16:32:59.359Z,20.87
2019-03-20T16:35:19.196Z,21.50
2019-03-20T16:37:38.972Z,20.30
2019-03-20T16:39:58.754Z,21.20
2019-03-20T16:42:18.792Z,23.77
2019-03-20T16:44:38.474Z,21.63
2019-03-20T16:46:58.179Z,27.17
2019-03-20T16:49:18.021Z,24.03
2019-03-20T16:51:37.661Z,22.20
2019-03-20T16:53:57.481Z,19.97
2019-03-20T16:56:17.527Z,21.70
2019-03-20T16:58:37.260Z,19.17
2019-03-20T17:00:57.110Z,20.37
2019-03-20T17:03:16.804Z,17.43
2019-03-20T17:05:36.612Z,19.30
2019-03-20T17:07:56.466Z,18.83
2019-03-20T17:10:23.721Z,20.77
2019-03-20T17:12:43.816Z,18.53
2019-03-20T17:15:11.827Z,21.70
2019-03-20T17:17:32.254Z,18.37
2019-03-20T17:19:52.241Z,19.77
2019-03-20T17:22:12.139Z,17.10
2019-03-20T17:24:32.016Z,19.80
2019-03-20T17:26:51.722Z,15.83
2019-03-20T17:29:13.632Z,19.37
2019-03-20T17:31:33.436Z,17.30
2019-03-20T17:33:53.189Z,16.87
2019-03-20T17:36:12.926Z,17.30
2019-03-20T17:38:32.745Z,20.17
2019-03-20T17:40:52.435Z,17.23
2019-03-20T17:43:12.216Z,18.43
2019-03-20T17:45:31.947Z,18.00
2019-03-20T17:47:51.637Z,23.50
2019-03-20T17:50:32.102Z,17.90
2019-03-20T17:52:51.772Z,19.20
2019-03-20T17:55:11.617Z,20.17
2019-03-20T17:57:31.821Z,17.13
2019-03-20T17:59:51.627Z,18.57
2019-03-20T18:02:11.338Z,17.37
2019-03-20T18:04:31.060Z,17.67
2019-03-20T18:06:50.797Z,17.57
2019-03-20T18:09:10.452Z,24.57
2019-03-20T18:11:30.209Z,16.23
2019-03-20T18:13:49.901Z,16.87
2019-03-20T18:16:09.723Z,18.63
2019-03-20T18:18:29.638Z,18.77
2019-03-20T18:20:49.489Z,18.00
2019-03-20T18:23:09.455Z,17.00
2019-03-20T18:25:29.377Z,20.03
2019-03-20T18:27:49.268Z,17.57
2019-03-20T18:30:31.223Z,17.40
2019-03-20T18:32:50.919Z,21.83
2019-03-20T18:35:10.828Z,19.03
2019-03-20T18:37:30.757Z,19.07
2019-03-20T18:39:50.688Z,17.17
2019-03-20T18:42:10.703Z,22.17
2019-03-20T18:44:31.329Z,20.37
2019-03-20T18:46:51.244Z,19.63
2019-03-20T18:49:11.258Z,23.80
2019-03-20T18:51:31.054Z,19.53
2019-03-20T18:53:50.888Z,20.70
2019-03-20T18:56:12.329Z,22.83
2019-03-20T18:58:32.541Z,23.17
2019-03-20T19:00:52.388Z,22.47
2019-03-20T19:03:22.472Z,21.60
2019-03-20T19:06:10.616Z,23.17
2019-03-20T19:08:30.469Z,22.57
2019-03-20T19:10:50.417Z,22.10
2019-03-20T19:13:10.279Z,22.40
2019-03-20T19:15:30.226Z,22.17
2019-03-20T19:17:50.108Z,22.70
2019-03-20T19:20:13.238Z,20.80
2019-03-20T19:22:32.961Z,21.10
2019-03-20T19:24:53.033Z,25.17
2019-03-20T19:27:12.891Z,20.63
2019-03-20T19:29:33.009Z,22.97
2019-03-20T19:31:52.777Z,24.67
2019-03-20T19:34:12.539Z,20.57
2019-03-20T19:36:32.255Z,21.30
2019-03-20T19:38:52.136Z,23.60
2019-03-20T19:41:11.965Z,23.80
2019-03-20T19:43:31.740Z,21.17
2019-03-20T19:45:51.432Z,19.07
2019-03-20T19:48:13.692Z,21.50
2019-03-20T19:50:32.971Z,18.53
2019-03-20T19:52:52.728Z,18.57
2019-03-20T19:55:33.477Z,20.00
2019-03-20T19:57:58.396Z,19.87
2019-03-20T20:00:24.082Z,18.97
2019-03-20T20:02:45.150Z,16.90
2019-03-20T20:05:15.793Z,17.03
2019-03-20T20:07:29.424Z,18.70
2019-03-20T20:09:49.062Z,17.57
2019-03-20T20:12:08.708Z,18.73
2019-03-20T20:14:28.540Z,17.80
2019-03-20T20:16:48.515Z,22.67
2019-03-20T20:19:08.359Z,22.37
2019-03-20T20:21:28.168Z,18.50
2019-03-20T20:23:48.226Z,18.17
2019-03-20T20:26:07.956Z,17.30
2019-03-20T20:28:27.770Z,17.33
2019-03-20T20:30:49.697Z,20.23
2019-03-20T20:33:09.459Z,22.10
2019-03-20T20:35:29.248Z,19.37
2019-03-20T20:37:49.399Z,17.07
2019-03-20T20:40:16.908Z,17.23
2019-03-20T20:42:43.055Z,16.57
2019-03-20T20:44:58.573Z,22.90
2019-03-20T20:47:18.369Z,19.40
2019-03-20T20:49:38.164Z,18.97
2019-03-20T20:51:57.947Z,17.33
2019-03-20T20:54:17.816Z,16.80
2019-03-20T20:56:37.674Z,16.30
2019-03-20T20:58:57.408Z,18.23
2019-03-20T21:01:17.061Z,16.83
2019-03-20T21:03:36.908Z,18.70
2019-03-20T21:05:56.708Z,21.43
2019-03-20T21:08:16.612Z,18.90
2019-03-20T21:10:36.438Z,21.10
2019-03-20T21:12:57.511Z,17.87
2019-03-20T21:15:34.924Z,18.47
2019-03-20T21:18:18.591Z,17.83
2019-03-20T21:20:39.075Z,19.70
2019-03-20T21:24:15.521Z,22.97
2019-03-20T21:27:03.946Z,20.83
2019-03-20T21:30:08.591Z,16.50
2019-03-20T21:32:39.775Z,19.57
2019-03-20T21:35:14.338Z,16.33
2019-03-20T21:38:05.455Z,16.60
2019-03-20T21:40:25.418Z,12.80
2019-03-20T21:43:37.397Z,20.20
2019-03-20T21:46:27.583Z,18.73
2019-03-20T21:48:47.372Z,15.40
2019-03-20T21:51:14.605Z,14.87
2019-03-20T21:54:12.205Z,24.30
2019-03-20T21:57:02.415Z,13.87
2019-03-20T21:59:52.502Z,16.17
2019-03-20T22:02:34.353Z,13.53
2019-03-20T22:04:54.603Z,19.13
2019-03-20T22:07:14.655Z,13.60
2019-03-20T22:09:58.537Z,13.63
2019-03-20T22:12:30.348Z,14.27
2019-03-20T22:14:56.220Z,12.70
2019-03-20T22:18:05.259Z,13.80
2019-03-20T22:20:42.393Z,12.03
2019-03-20T22:23:25.870Z,14.17
2019-03-20T22:26:09.486Z,13.80
2019-03-20T22:29:19.093Z,13.23
2019-03-20T22:31:52.519Z,14.23
2019-03-20T22:34:44.764Z,12.60
2019-03-20T22:37:04.716Z,11.73
2019-03-20T22:39:56.658Z,12.80
2019-03-20T22:42:51.600Z,16.27
2019-03-20T22:45:22.939Z,11.00
2019-03-20T22:48:25.397Z,11.90
2019-03-20T22:51:11.259Z,10.10
2019-03-20T22:54:03.315Z,10.97
2019-03-20T22:56:34.613Z,11.27
2019-03-20T22:58:54.962Z,13.13
2019-03-20T23:01:29.560Z,12.70
2019-03-20T23:04:10.433Z,10.87
2019-03-20T23:06:30.319Z,11.63
2019-03-20T23:08:50.187Z,13.30
2019-03-20T23:11:13.299Z,10.43
2019-03-20T23:13:41.024Z,12.27
2019-03-20T23:15:55.112Z,10.87
2019-03-20T23:18:14.887Z,11.57
2019-03-20T23:20:34.815Z,13.10
2019-03-20T23:22:54.642Z,13.83
2019-03-20T23:25:14.638Z,12.60
2019-03-20T23:27:34.689Z,14.67
2019-03-20T23:29:54.692Z,13.13
2019-03-20T23:32:14.566Z,11.40
2019-03-20T23:34:34.465Z,11.93
2019-03-20T23:36:54.639Z,13.63
2019-03-20T23:39:14.656Z,13.10
2019-03-20T23:41:34.377Z,13.20
2019-03-20T23:43:54.209Z,17.90
2019-03-20T23:46:13.991Z,12.50
2019-03-20T23:48:39.346Z,14.87
2019-03-20T23:51:05.316Z,11.37
2019-03-20T23:53:25.193Z,12.47
2019-03-20T23:55:44.907Z,16.40
2019-03-20T23:58:04.717Z,14.60
